createdAt,value
2019-02-11T00:00:24.782Z,6.19
2019-02-11T00:02:54.585Z,6.13
2019-02-11T00:05:22.655Z,5.97
2019-02-11T00:07:50.807Z,5.81
2019-02-11T00:10:18.824Z,5.80
2019-02-11T00:12:46.764Z,5.71
2019-02-11T00:15:14.751Z,5.75
2019-02-11T00:17:42.784Z,5.75
2019-02-11T00:20:10.632Z,5.79
2019-02-11T00:22:38.727Z,5.72
2019-02-11T00:25:06.870Z,5.62
2019-02-11T00:27:34.871Z,5.58
2019-02-11T00:30:02.760Z,5.54
2019-02-11T00:32:30.839Z,5.57
2019-02-11T00:34:58.904Z,5.54
2019-02-11T00:37:26.774Z,5.55
2019-02-11T00:39:54.375Z,5.57
2019-02-11T00:42:22.273Z,5.57
2019-02-11T00:44:50.357Z,5.58
2019-02-11T00:47:18.691Z,5.48
2019-02-11T00:49:46.689Z,5.43
2019-02-11T00:52:14.597Z,5.39
2019-02-11T00:54:42.649Z,5.35
2019-02-11T00:57:10.616Z,5.28
2019-02-11T00:59:38.582Z,5.18
2019-02-11T01:02:06.689Z,5.15
2019-02-11T01:04:34.796Z,5.13
2019-02-11T01:07:02.665Z,5.15
2019-02-11T01:09:30.673Z,5.12
2019-02-11T01:11:58.533Z,5.11
2019-02-11T01:14:26.623Z,5.05
2019-02-11T01:16:54.622Z,4.99
2019-02-11T01:19:24.094Z,5.00
2019-02-11T01:21:52.099Z,5.07
2019-02-11T01:24:19.998Z,4.99
2019-02-11T01:26:48.033Z,5.00
2019-02-11T01:29:15.804Z,5.05
2019-02-11T01:31:43.736Z,5.10
2019-02-11T01:34:11.791Z,5.11
2019-02-11T01:36:39.714Z,5.07
2019-02-11T01:39:07.693Z,5.11
2019-02-11T01:41:36.883Z,5.08
2019-02-11T01:44:04.648Z,5.14
2019-02-11T01:46:32.488Z,5.14
2019-02-11T01:49:00.655Z,5.06
2019-02-11T01:51:28.750Z,5.03
2019-02-11T01:53:56.981Z,4.99
2019-02-11T01:56:25.182Z,4.94
2019-02-11T01:58:53.199Z,4.97
2019-02-11T02:01:21.154Z,5.00
2019-02-11T02:03:49.335Z,4.99
2019-02-11T02:06:19.474Z,5.00
2019-02-11T02:08:47.433Z,5.02
2019-02-11T02:11:15.594Z,5.00
2019-02-11T02:13:45.114Z,4.99
2019-02-11T02:16:13.222Z,4.96
2019-02-11T02:18:41.244Z,4.97
2019-02-11T02:21:09.044Z,4.99
2019-02-11T02:23:36.906Z,4.96
2019-02-11T02:26:05.013Z,4.94
2019-02-11T02:28:33.105Z,4.93
2019-02-11T02:31:01.249Z,4.91
2019-02-11T02:33:29.419Z,4.87
2019-02-11T02:35:57.548Z,4.88
2019-02-11T02:38:25.523Z,4.95
2019-02-11T02:40:53.650Z,4.90
2019-02-11T02:43:22.616Z,4.93
2019-02-11T02:45:50.690Z,4.88
2019-02-11T02:48:18.698Z,4.90
2019-02-11T02:50:46.695Z,4.80
2019-02-11T02:53:14.915Z,4.82
2019-02-11T02:55:42.948Z,4.86
2019-02-11T02:58:10.771Z,4.83
2019-02-11T03:00:39.056Z,4.84
2019-02-11T03:03:07.081Z,4.82
2019-02-11T03:05:35.191Z,4.78
2019-02-11T03:08:03.146Z,4.83
2019-02-11T03:10:31.480Z,4.84
2019-02-11T03:12:59.650Z,4.74
2019-02-11T03:15:27.582Z,4.70
2019-02-11T03:17:55.413Z,4.73
2019-02-11T03:20:23.356Z,4.71
2019-02-11T03:22:51.220Z,4.67
2019-02-11T03:25:19.028Z,4.65
2019-02-11T03:27:46.916Z,4.63
2019-02-11T03:30:14.855Z,4.64
2019-02-11T03:32:42.779Z,4.69
2019-02-11T03:35:10.877Z,4.51
2019-02-11T03:37:38.759Z,4.49
2019-02-11T03:40:06.962Z,4.51
2019-02-11T03:42:34.713Z,4.47
2019-02-11T03:45:02.680Z,4.47
2019-02-11T03:47:30.474Z,4.47
2019-02-11T03:49:58.525Z,4.29
2019-02-11T03:52:26.532Z,4.39
2019-02-11T03:54:54.550Z,4.43
2019-02-11T03:57:22.935Z,4.37
2019-02-11T03:59:50.999Z,4.48
2019-02-11T04:02:19.034Z,4.35
2019-02-11T04:04:47.157Z,4.32
2019-02-11T04:07:15.097Z,4.25
2019-02-11T04:09:43.185Z,4.26
2019-02-11T04:12:11.395Z,4.17
2019-02-11T04:14:39.328Z,4.11
2019-02-11T04:17:07.230Z,4.16
2019-02-11T04:19:35.150Z,4.08
2019-02-11T04:22:07.108Z,4.07
2019-02-11T04:24:35.008Z,4.04
2019-02-11T04:27:03.275Z,4.02
2019-02-11T04:29:31.265Z,3.97
2019-02-11T04:31:59.113Z,3.93
2019-02-11T04:34:27.182Z,3.85
2019-02-11T04:36:55.249Z,3.81
2019-02-11T04:39:23.387Z,3.86
2019-02-11T04:41:51.438Z,3.88
2019-02-11T04:44:19.541Z,3.91
2019-02-11T04:46:47.589Z,3.88
2019-02-11T04:49:15.643Z,3.89
2019-02-11T04:51:43.495Z,3.86
2019-02-11T04:54:11.461Z,3.79
2019-02-11T04:56:39.467Z,3.81
2019-02-11T04:59:07.496Z,3.83
2019-02-11T05:01:35.373Z,3.75
2019-02-11T05:04:03.553Z,3.85
2019-02-11T05:06:31.451Z,3.89
2019-02-11T05:08:59.580Z,3.86
2019-02-11T05:11:27.355Z,3.85
2019-02-11T05:13:55.319Z,3.90
2019-02-11T05:16:23.088Z,3.93
2019-02-11T05:18:51.052Z,3.95
2019-02-11T05:21:18.940Z,3.89
2019-02-11T05:23:46.897Z,3.81
2019-02-11T05:26:14.971Z,3.70
2019-02-11T05:28:43.030Z,3.62
2019-02-11T05:31:11.194Z,3.67
2019-02-11T05:33:39.307Z,3.55
2019-02-11T05:36:07.622Z,3.49
2019-02-11T05:38:35.625Z,3.43
2019-02-11T05:41:03.658Z,3.48
2019-02-11T05:43:32.740Z,3.50
2019-02-11T05:46:00.715Z,3.53
2019-02-11T05:48:28.882Z,3.46
2019-02-11T05:50:56.934Z,3.42
2019-02-11T05:53:25.207Z,3.44
2019-02-11T05:55:53.275Z,3.41
2019-02-11T05:58:21.364Z,3.45
2019-02-11T06:00:52.364Z,3.44
2019-02-11T06:03:20.386Z,3.33
2019-02-11T06:05:48.715Z,3.34
2019-02-11T06:08:16.719Z,3.29
2019-02-11T06:10:45.009Z,3.21
2019-02-11T06:13:12.909Z,3.17
2019-02-11T06:15:40.649Z,3.16
2019-02-11T06:18:08.291Z,3.17
2019-02-11T06:20:35.950Z,3.16
2019-02-11T06:23:03.585Z,3.16
2019-02-11T06:25:31.303Z,3.11
2019-02-11T06:27:59.028Z,2.96
2019-02-11T06:30:27.650Z,2.85
2019-02-11T06:32:55.420Z,2.93
2019-02-11T06:35:23.116Z,3.03
2019-02-11T06:37:50.649Z,3.09
2019-02-11T06:40:18.262Z,3.12
2019-02-11T06:42:45.822Z,2.93
2019-02-11T06:45:13.631Z,2.97
2019-02-11T06:47:41.266Z,3.01
2019-02-11T06:50:09.808Z,3.02
2019-02-11T06:52:37.336Z,2.92
2019-02-11T06:55:06.133Z,2.89
2019-02-11T06:57:33.787Z,2.96
2019-02-11T07:00:01.745Z,3.00
2019-02-11T07:02:29.397Z,2.99
2019-02-11T07:04:57.070Z,2.90
2019-02-11T07:07:24.746Z,2.84
2019-02-11T07:09:52.579Z,2.91
2019-02-11T07:12:20.477Z,2.95
2019-02-11T07:14:48.145Z,2.99
2019-02-11T07:17:15.870Z,2.97
2019-02-11T07:19:43.567Z,2.99
2019-02-11T07:22:11.331Z,3.05
2019-02-11T07:24:40.197Z,3.11
2019-02-11T07:27:07.955Z,3.03
2019-02-11T07:29:35.562Z,3.04
2019-02-11T07:32:03.236Z,3.11
2019-02-11T07:34:30.918Z,3.20
2019-02-11T07:36:58.593Z,3.26
2019-02-11T07:39:26.239Z,3.29
2019-02-11T07:42:25.277Z,3.21
2019-02-11T07:44:57.941Z,3.31
2019-02-11T07:47:25.841Z,3.34
2019-02-11T07:49:53.548Z,3.33
2019-02-11T07:52:26.682Z,3.17
2019-02-11T07:54:50.678Z,3.25
2019-02-11T07:57:18.286Z,3.33
2019-02-11T07:59:45.855Z,3.34
2019-02-11T08:02:13.517Z,3.41
2019-02-11T08:04:41.092Z,3.43
2019-02-11T08:07:10.402Z,3.42
2019-02-11T08:09:38.141Z,3.37
2019-02-11T08:12:05.872Z,3.39
2019-02-11T08:14:33.570Z,3.51
2019-02-11T08:17:02.161Z,3.57
2019-02-11T08:19:29.774Z,3.47
2019-02-11T08:21:57.404Z,3.53
2019-02-11T08:24:25.127Z,3.60
2019-02-11T08:26:52.807Z,3.66
2019-02-11T08:29:20.513Z,3.72
2019-02-11T08:31:48.250Z,3.84
2019-02-11T08:34:15.946Z,3.97
2019-02-11T08:36:43.674Z,4.00
2019-02-11T08:39:11.685Z,4.06
2019-02-11T08:41:39.299Z,4.17
2019-02-11T08:44:06.940Z,4.24
2019-02-11T08:46:34.526Z,4.32
2019-02-11T08:49:02.124Z,4.38
2019-02-11T08:51:29.754Z,4.43
2019-02-11T08:53:57.413Z,4.48
2019-02-11T08:56:25.082Z,4.41
2019-02-11T08:58:52.749Z,4.46
2019-02-11T09:01:20.404Z,4.46
2019-02-11T09:03:48.067Z,4.59
2019-02-11T09:06:15.798Z,4.64
2019-02-11T09:08:43.501Z,4.74
2019-02-11T09:11:11.245Z,4.83
2019-02-11T09:13:38.915Z,4.84
2019-02-11T09:16:06.661Z,4.93
2019-02-11T09:18:34.400Z,4.89
2019-02-11T09:21:02.098Z,4.91
2019-02-11T09:23:29.786Z,4.90
2019-02-11T09:25:57.369Z,4.83
2019-02-11T09:28:26.053Z,4.83
2019-02-11T09:30:53.630Z,4.91
2019-02-11T09:33:21.180Z,4.95
2019-02-11T09:35:48.777Z,5.00
2019-02-11T09:38:16.507Z,5.03
2019-02-11T09:40:44.079Z,5.06
2019-02-11T09:43:11.663Z,5.22
2019-02-11T09:45:39.254Z,5.33
2019-02-11T09:48:06.884Z,5.37
2019-02-11T09:50:42.950Z,5.40
2019-02-11T09:53:10.592Z,5.50
2019-02-11T09:55:38.217Z,5.53
2019-02-11T09:58:05.908Z,5.58
2019-02-11T10:00:33.474Z,5.68
2019-02-11T10:03:01.106Z,5.84
2019-02-11T10:05:28.754Z,5.82
2019-02-11T10:07:57.541Z,5.91
2019-02-11T10:10:25.117Z,6.00
2019-02-11T10:12:52.777Z,6.10
2019-02-11T10:15:20.445Z,6.11
2019-02-11T10:17:48.067Z,6.05
2019-02-11T10:20:17.297Z,5.99
2019-02-11T10:22:44.908Z,5.99
2019-02-11T10:25:15.167Z,6.08
2019-02-11T10:27:42.776Z,6.09
2019-02-11T10:30:11.759Z,6.20
2019-02-11T10:32:40.552Z,6.41
2019-02-11T10:35:09.098Z,6.55
2019-02-11T10:37:36.671Z,6.78
2019-02-11T10:40:05.078Z,6.97
2019-02-11T10:42:32.656Z,7.23
2019-02-11T10:45:00.233Z,7.48
2019-02-11T10:47:27.791Z,7.78
2019-02-11T10:49:55.368Z,7.98
2019-02-11T10:52:22.911Z,8.13
2019-02-11T10:54:50.616Z,8.53
2019-02-11T10:57:18.494Z,8.78
2019-02-11T10:59:46.188Z,9.15
2019-02-11T11:02:13.965Z,9.49
2019-02-11T11:04:41.662Z,9.68
2019-02-11T11:07:09.386Z,10.07
2019-02-11T11:09:37.066Z,10.08
2019-02-11T11:12:04.848Z,10.44
2019-02-11T11:14:32.631Z,10.79
2019-02-11T11:17:03.139Z,10.78
2019-02-11T11:19:30.844Z,11.04
2019-02-11T11:21:59.153Z,11.14
2019-02-11T11:24:26.915Z,11.38
2019-02-11T11:26:54.687Z,11.18
2019-02-11T11:29:22.375Z,10.46
2019-02-11T11:31:49.916Z,10.40
2019-02-11T11:34:17.606Z,10.56
2019-02-11T11:36:45.219Z,10.76
2019-02-11T11:39:19.367Z,10.36
2019-02-11T11:41:46.970Z,9.86
2019-02-11T11:44:14.605Z,9.99
2019-02-11T11:46:47.175Z,10.10
2019-02-11T11:49:11.868Z,9.57
2019-02-11T11:51:40.634Z,9.49
2019-02-11T11:54:08.394Z,9.50
2019-02-11T11:56:36.006Z,9.65
2019-02-11T11:59:03.795Z,10.12
2019-02-11T12:01:31.485Z,10.87
2019-02-11T12:03:59.172Z,11.25
2019-02-11T12:06:26.942Z,11.40
2019-02-11T12:08:58.714Z,11.81
2019-02-11T12:11:24.202Z,11.54
2019-02-11T12:13:51.834Z,10.88
2019-02-11T12:16:19.443Z,10.78
2019-02-11T12:18:47.132Z,10.55
2019-02-11T12:21:14.763Z,10.44
2019-02-11T12:23:42.391Z,10.28
2019-02-11T12:26:10.043Z,10.38
2019-02-11T12:28:38.703Z,10.76
2019-02-11T12:31:06.835Z,10.92
2019-02-11T12:33:34.584Z,11.17
2019-02-11T12:36:02.254Z,11.54
2019-02-11T12:38:29.899Z,11.73
2019-02-11T12:40:57.500Z,11.64
2019-02-11T12:43:25.120Z,11.58
2019-02-11T12:45:52.708Z,11.19
2019-02-11T12:48:20.522Z,10.93
2019-02-11T12:50:48.242Z,11.04
2019-02-11T12:53:16.257Z,10.75
2019-02-11T12:55:43.995Z,10.84
2019-02-11T12:58:12.706Z,11.28
2019-02-11T13:00:40.512Z,11.79
2019-02-11T13:03:08.239Z,11.85
2019-02-11T13:05:44.803Z,11.77
2019-02-11T13:08:05.357Z,11.96
2019-02-11T13:10:32.972Z,12.00
2019-02-11T13:13:00.605Z,11.99
2019-02-11T13:15:56.470Z,11.94
2019-02-11T13:17:58.087Z,11.94
2019-02-11T13:20:27.449Z,12.08
2019-02-11T13:22:55.122Z,12.02
2019-02-11T13:25:22.822Z,12.05
2019-02-11T13:27:50.583Z,11.96
2019-02-11T13:30:19.241Z,11.41
2019-02-11T13:32:46.932Z,11.66
2019-02-11T13:35:14.713Z,12.12
2019-02-11T13:37:42.313Z,11.75
2019-02-11T13:40:11.225Z,11.84
2019-02-11T13:42:38.817Z,11.70
2019-02-11T13:45:10.736Z,11.21
2019-02-11T13:47:52.435Z,10.61
2019-02-11T13:50:08.820Z,10.03
2019-02-11T13:52:36.454Z,10.24
2019-02-11T13:55:04.464Z,9.96
2019-02-11T13:57:32.219Z,10.15
2019-02-11T13:59:59.858Z,10.55
2019-02-11T14:02:27.529Z,10.96
2019-02-11T14:04:55.124Z,11.59
2019-02-11T14:07:22.922Z,12.01
2019-02-11T14:09:50.490Z,11.69
2019-02-11T14:12:18.247Z,11.66
2019-02-11T14:14:45.792Z,11.20
2019-02-11T14:17:13.421Z,10.76
2019-02-11T14:19:41.103Z,10.39
2019-02-11T14:22:09.060Z,9.90
2019-02-11T14:24:36.998Z,9.50
2019-02-11T14:27:04.945Z,9.24
2019-02-11T14:29:32.949Z,9.28
2019-02-11T14:32:01.213Z,9.05
2019-02-11T14:34:28.908Z,8.89
2019-02-11T14:36:56.730Z,8.79
2019-02-11T14:39:24.989Z,8.70
2019-02-11T14:41:52.820Z,8.53
2019-02-11T14:44:20.677Z,8.54
2019-02-11T14:46:48.494Z,8.50
2019-02-11T14:49:16.312Z,8.41
2019-02-11T14:51:44.076Z,8.25
2019-02-11T14:54:11.833Z,8.19
2019-02-11T14:56:39.683Z,8.03
2019-02-11T14:59:07.395Z,8.01
2019-02-11T15:01:35.153Z,7.78
2019-02-11T15:04:02.839Z,7.65
2019-02-11T15:06:33.235Z,7.64
2019-02-11T15:09:00.992Z,7.52
2019-02-11T15:11:30.395Z,7.55
2019-02-11T15:13:58.097Z,7.41
2019-02-11T15:16:25.896Z,7.38
2019-02-11T15:18:53.540Z,7.29
2019-02-11T15:21:21.107Z,7.30
2019-02-11T15:23:48.781Z,7.30
2019-02-11T15:26:22.119Z,7.32
2019-02-11T15:28:49.757Z,7.23
2019-02-11T15:31:17.467Z,7.24
2019-02-11T15:33:45.187Z,7.15
2019-02-11T15:36:15.588Z,7.09
2019-02-11T15:38:43.250Z,7.11
2019-02-11T15:41:11.021Z,7.04
2019-02-11T15:43:38.713Z,7.06
2019-02-11T15:46:07.286Z,6.97
2019-02-11T15:48:42.601Z,6.99
2019-02-11T15:51:04.437Z,6.87
2019-02-11T15:53:32.138Z,6.89
2019-02-11T15:56:06.556Z,6.86
2019-02-11T15:58:29.538Z,6.78
2019-02-11T16:00:57.117Z,6.79
2019-02-11T16:03:24.732Z,6.75
2019-02-11T16:05:52.323Z,6.76
2019-02-11T16:08:20.121Z,6.75
2019-02-11T16:10:47.675Z,6.66
2019-02-11T16:13:15.325Z,6.68
2019-02-11T16:15:42.909Z,6.72
2019-02-11T16:18:10.590Z,6.61
2019-02-11T16:20:38.192Z,6.57
2019-02-11T16:23:06.887Z,6.60
2019-02-11T16:25:34.409Z,6.50
2019-02-11T16:28:02.102Z,6.51
2019-02-11T16:30:29.705Z,6.43
2019-02-11T16:32:57.462Z,6.32
2019-02-11T16:35:25.081Z,6.35
2019-02-11T16:37:52.734Z,6.36
2019-02-11T16:40:22.552Z,6.36
2019-02-11T16:42:50.305Z,6.39
2019-02-11T16:45:17.884Z,6.24
2019-02-11T16:47:45.648Z,6.33
2019-02-11T16:50:13.373Z,6.31
2019-02-11T16:52:41.019Z,6.32
2019-02-11T16:55:08.801Z,6.25
2019-02-11T16:57:37.517Z,6.17
2019-02-11T17:00:06.899Z,6.06
2019-02-11T17:02:34.593Z,5.98
2019-02-11T17:05:02.489Z,5.97
2019-02-11T17:07:30.229Z,5.89
2019-02-11T17:09:58.016Z,6.00
2019-02-11T17:12:25.839Z,6.01
2019-02-11T17:14:53.597Z,5.94
2019-02-11T17:17:21.311Z,5.90
2019-02-11T17:19:49.105Z,5.89
2019-02-11T17:22:16.846Z,5.86
2019-02-11T17:24:44.547Z,5.78
2019-02-11T17:27:12.237Z,5.85
2019-02-11T17:29:39.839Z,5.83
2019-02-11T17:32:07.411Z,5.84
2019-02-11T17:34:35.124Z,5.89
2019-02-11T17:37:02.722Z,5.86
2019-02-11T17:39:30.454Z,5.87
2019-02-11T17:41:58.467Z,5.86
2019-02-11T17:44:29.110Z,5.86
2019-02-11T17:46:56.757Z,5.81
2019-02-11T17:49:24.784Z,5.83
2019-02-11T17:51:53.464Z,5.79
2019-02-11T17:54:21.104Z,5.75
2019-02-11T17:56:48.737Z,5.75
2019-02-11T17:59:16.466Z,5.80
2019-02-11T18:01:44.225Z,5.75
2019-02-11T18:04:12.974Z,5.73
2019-02-11T18:06:40.761Z,5.64
2019-02-11T18:09:10.258Z,5.73
2019-02-11T18:11:39.536Z,5.63
2019-02-11T18:14:07.446Z,5.59
2019-02-11T18:16:35.097Z,5.55
2019-02-11T18:19:02.812Z,5.64
2019-02-11T18:21:30.502Z,5.62
2019-02-11T18:23:58.204Z,5.67
2019-02-11T18:26:27.106Z,5.66
2019-02-11T18:28:54.736Z,5.68
2019-02-11T18:31:22.492Z,5.61
2019-02-11T18:33:50.303Z,5.68
2019-02-11T18:36:18.355Z,5.64
2019-02-11T18:38:46.130Z,5.63
2019-02-11T18:41:13.829Z,5.64
2019-02-11T18:43:41.831Z,5.62
2019-02-11T18:46:09.429Z,5.65
2019-02-11T18:48:37.063Z,5.63
2019-02-11T18:51:04.714Z,5.68
2019-02-11T18:53:32.707Z,5.68
2019-02-11T18:56:00.388Z,5.67
2019-02-11T18:58:28.032Z,5.70
2019-02-11T19:00:55.708Z,5.68
2019-02-11T19:03:23.295Z,5.81
2019-02-11T19:05:50.974Z,5.79
2019-02-11T19:08:18.549Z,5.81
2019-02-11T19:10:46.218Z,5.75
2019-02-11T19:13:13.982Z,5.81
2019-02-11T19:15:41.714Z,5.81
2019-02-11T19:18:13.466Z,5.81
2019-02-11T19:20:42.116Z,5.84
2019-02-11T19:23:09.720Z,5.76
2019-02-11T19:25:37.352Z,5.88
2019-02-11T19:28:04.970Z,5.84
2019-02-11T19:30:32.557Z,5.89
2019-02-11T19:33:00.311Z,5.78
2019-02-11T19:35:27.912Z,5.94
2019-02-11T19:37:55.518Z,5.91
2019-02-11T19:40:23.115Z,5.83
2019-02-11T19:42:50.743Z,5.80
2019-02-11T19:45:18.723Z,5.74
2019-02-11T19:47:46.357Z,5.80
2019-02-11T19:50:14.602Z,5.83
2019-02-11T19:52:43.341Z,5.77
2019-02-11T19:55:11.180Z,5.77
2019-02-11T19:57:38.922Z,5.81
2019-02-11T20:00:10.009Z,5.80
2019-02-11T20:02:37.746Z,5.78
2019-02-11T20:05:06.186Z,5.80
2019-02-11T20:07:40.911Z,5.87
2019-02-11T20:10:10.083Z,5.76
2019-02-11T20:12:37.867Z,5.74
2019-02-11T20:15:07.456Z,5.80
2019-02-11T20:17:35.140Z,5.77
2019-02-11T20:20:02.772Z,5.71
2019-02-11T20:22:30.389Z,5.73
2019-02-11T20:24:57.976Z,5.67
2019-02-11T20:27:25.749Z,5.70
2019-02-11T20:29:53.355Z,5.71
2019-02-11T20:32:21.215Z,5.74
2019-02-11T20:34:48.953Z,5.69
2019-02-11T20:37:17.179Z,5.65
2019-02-11T20:39:45.561Z,5.62
2019-02-11T20:42:14.984Z,5.65
2019-02-11T20:44:42.858Z,5.68
2019-02-11T20:47:10.636Z,5.66
2019-02-11T20:49:38.410Z,5.54
2019-02-11T20:52:06.196Z,5.56
2019-02-11T20:54:34.066Z,5.53
2019-02-11T20:57:01.799Z,5.44
2019-02-11T20:59:29.368Z,5.45
2019-02-11T21:01:57.067Z,5.42
2019-02-11T21:04:24.623Z,5.39
2019-02-11T21:06:52.371Z,5.40
2019-02-11T21:09:22.514Z,5.39
2019-02-11T21:11:50.291Z,5.38
2019-02-11T21:14:17.870Z,5.39
2019-02-11T21:16:45.915Z,5.36
2019-02-11T21:19:13.531Z,5.29
2019-02-11T21:21:43.217Z,5.28
2019-02-11T21:24:10.823Z,5.34
2019-02-11T21:26:38.760Z,5.27
2019-02-11T21:29:06.647Z,5.25
2019-02-11T21:31:34.857Z,5.24
2019-02-11T21:34:03.013Z,5.19
2019-02-11T21:36:31.112Z,5.22
2019-02-11T21:38:58.837Z,5.25
2019-02-11T21:41:26.500Z,5.21
2019-02-11T21:43:54.315Z,5.18
2019-02-11T21:46:21.993Z,5.16
2019-02-11T21:48:51.474Z,5.22
2019-02-11T21:51:19.407Z,5.20
2019-02-11T21:53:47.122Z,5.17
2019-02-11T21:56:14.834Z,5.22
2019-02-11T21:58:42.582Z,5.22
2019-02-11T22:01:10.391Z,5.22
2019-02-11T22:03:39.179Z,5.23
2019-02-11T22:06:06.919Z,5.28
2019-02-11T22:08:35.061Z,5.29
2019-02-11T22:11:03.170Z,5.41
2019-02-11T22:13:32.239Z,5.44
2019-02-11T22:16:00.328Z,5.41
2019-02-11T22:18:28.384Z,5.37
2019-02-11T22:20:56.130Z,5.31
2019-02-11T22:23:23.760Z,5.39
2019-02-11T22:25:51.317Z,5.41
2019-02-11T22:28:19.134Z,5.33
2019-02-11T22:30:46.762Z,5.34
2019-02-11T22:33:15.546Z,5.33
2019-02-11T22:35:43.173Z,5.25
2019-02-11T22:38:10.725Z,5.23
2019-02-11T22:40:38.323Z,5.20
2019-02-11T22:43:06.174Z,5.25
2019-02-11T22:45:34.168Z,5.20
2019-02-11T22:48:01.778Z,5.16
2019-02-11T22:50:29.408Z,5.12
2019-02-11T22:52:57.235Z,5.10
2019-02-11T22:55:24.791Z,5.08
2019-02-11T22:57:52.842Z,5.11
2019-02-11T23:00:28.157Z,5.11
2019-02-11T23:02:55.909Z,5.18
2019-02-11T23:05:23.490Z,5.21
2019-02-11T23:07:51.207Z,5.19
2019-02-11T23:10:19.020Z,5.23
2019-02-11T23:12:46.687Z,5.23
2019-02-11T23:15:14.497Z,5.16
2019-02-11T23:17:42.172Z,5.13
2019-02-11T23:20:10.139Z,5.11
2019-02-11T23:22:38.147Z,5.13
2019-02-11T23:25:06.058Z,5.06
2019-02-11T23:27:34.197Z,5.03
2019-02-11T23:30:02.671Z,5.01
2019-02-11T23:32:30.338Z,4.98
2019-02-11T23:34:58.072Z,4.92
2019-02-11T23:37:25.706Z,4.87
2019-02-11T23:39:53.291Z,4.82
2019-02-11T23:42:20.962Z,4.77
2019-02-11T23:44:48.505Z,4.67
2019-02-11T23:47:16.278Z,4.68
2019-02-11T23:49:44.368Z,4.71
2019-02-11T23:52:12.097Z,4.73
2019-02-11T23:54:39.665Z,4.72
2019-02-11T23:57:07.451Z,4.68
2019-02-11T23:59:35.038Z,4.64
